Time;durP1;ratioP1;P1;durP2;ratioP2;P2;SDS_P1;SDS_P2;PMS_P1;PMS_P2;Temp;Humidity;BMP_temperature;BMP_pressure;BME280_temperature;BME280_humidity;BME280_pressure;Samples;Min_cycle;Max_cycle;Signal;HPM_P1;HPM_P2
2024/04/11 00:02:07;;;;;;;9.27;4.32;;;;;;;;;;5346068;26;20021;-64
2024/04/11 00:04:33;;;;;;;7.93;3.45;;;;;;;;;;5346006;26;20437;-64
2024/04/11 00:06:58;;;;;;;3.47;3.15;;;;;;;;;;5345450;26;19997;-64
2024/04/11 00:09:23;;;;;;;8.95;3.72;;;;;;;;;;5346620;26;20009;-64
2024/04/11 00:11:49;;;;;;;6.35;3.63;;;;;;;;;;5344174;26;19993;-64
2024/04/11 00:14:14;;;;;;;7.15;4.20;;;;;;;;;;5344554;26;20011;-64
2024/04/11 00:16:39;;;;;;;9.25;4.43;;;;;;;;;;5346950;26;20016;-64
2024/04/11 00:19:05;;;;;;;5.45;3.47;;;;;;;;;;5344100;26;20035;-64
2024/04/11 00:21:31;;;;;;;11.95;3.97;;;;;;;;;;5346286;26;20526;-64
2024/04/11 00:23:58;;;;;;;6.43;4.03;;;;;;;;;;5343489;26;20084;-63
2024/04/11 00:26:23;;;;;;;7.30;3.45;;;;;;;;;;5346075;26;20004;-63
2024/04/11 00:28:49;;;;;;;10.98;3.88;;;;;;;;;;5345314;26;20016;-64
2024/04/11 00:31:15;;;;;;;6.05;3.67;;;;;;;;;;5346519;26;19997;-64
2024/04/11 00:33:54;;;;;;;6.40;3.75;;;;;;;;;;5345730;26;20009;-63
2024/04/11 00:36:23;;;;;;;11.10;3.65;;;;;;;;;;5335605;26;19997;-63
2024/04/11 00:38:50;;;;;;;3.75;3.10;;;;;;;;;;5345236;26;20024;-64
2024/04/11 00:41:17;;;;;;;3.00;2.60;;;;;;;;;;5345961;26;20056;-64
2024/04/11 00:43:43;;;;;;;10.55;3.38;;;;;;;;;;5345559;26;20009;-63
2024/04/11 00:46:09;;;;;;;7.45;3.15;;;;;;;;;;5345958;26;20008;-64
2024/04/11 00:48:36;;;;;;;6.15;2.88;;;;;;;;;;5345367;26;20086;-67
2024/04/11 00:51:03;;;;;;;7.05;2.70;;;;;;;;;;5345891;26;20005;-66
2024/04/11 00:53:30;;;;;;;7.18;2.55;;;;;;;;;;5345418;26;20023;-66
2024/04/11 00:55:56;;;;;;;4.35;2.30;;;;;;;;;;5345488;26;20016;-66
2024/04/11 00:58:22;;;;;;;5.05;1.90;;;;;;;;;;5345167;26;20013;-66
2024/04/11 01:00:48;;;;;;;6.40;2.25;;;;;;;;;;5345703;26;20005;-68
2024/04/11 01:03:14;;;;;;;12.02;2.60;;;;;;;;;;5345759;26;20008;-67
2024/04/11 01:05:39;;;;;;;8.65;3.10;;;;;;;;;;5346056;26;20005;-67
2024/04/11 01:08:09;;;;;;;5.22;2.10;;;;;;;;;;5344805;26;20028;-67
2024/04/11 01:10:37;;;;;;;5.22;2.58;;;;;;;;;;5345959;26;20005;-68
2024/04/11 01:13:05;;;;;;;2.72;1.90;;;;;;;;;;5343182;26;20017;-68
2024/04/11 01:15:34;;;;;;;6.13;2.38;;;;;;;;;;5345703;26;20020;-68
2024/04/11 01:18:01;;;;;;;4.03;2.22;;;;;;;;;;5344686;26;20024;-67
2024/04/11 01:20:27;;;;;;;3.45;2.60;;;;;;;;;;5345654;26;20009;-67
2024/04/11 01:22:52;;;;;;;4.80;2.40;;;;;;;;;;5344731;26;20013;-67
2024/04/11 01:25:18;;;;;;;2.40;1.75;;;;;;;;;;5345658;26;20075;-68
2024/04/11 01:27:44;;;;;;;5.95;2.50;;;;;;;;;;5343084;26;20016;-66
2024/04/11 01:30:11;;;;;;;5.20;2.65;;;;;;;;;;5345932;26;20004;-67
2024/04/11 01:32:37;;;;;;;5.57;2.60;;;;;;;;;;5345021;26;20453;-67
2024/04/11 01:35:04;;;;;;;6.78;2.30;;;;;;;;;;5343388;26;20009;-67
2024/04/11 01:37:29;;;;;;;6.53;2.83;;;;;;;;;;5344973;26;20013;-67
2024/04/11 01:39:55;;;;;;;9.55;2.28;;;;;;;;;;5344892;26;20001;-67
2024/04/11 01:42:21;;;;;;;3.03;2.10;;;;;;;;;;5344495;26;20020;-67
2024/04/11 01:44:46;;;;;;;2.67;2.20;;;;;;;;;;5344823;26;20005;-67
2024/04/11 01:47:14;;;;;;;6.43;2.17;;;;;;;;;;5345264;26;20052;-67
2024/04/11 01:49:43;;;;;;;4.90;2.40;;;;;;;;;;5345326;26;20037;-68
2024/04/11 01:52:12;;;;;;;4.72;2.30;;;;;;;;;;5344474;26;20016;-67
2024/04/11 01:54:38;;;;;;;7.88;2.53;;;;;;;;;;5345398;26;20005;-67
2024/04/11 01:57:04;;;;;;;6.60;2.33;;;;;;;;;;5344391;26;20036;-67
2024/04/11 01:59:30;;;;;;;4.68;2.15;;;;;;;;;;5342969;26;20070;-64
2024/04/11 02:01:56;;;;;;;3.20;2.00;;;;;;;;;;5344709;26;20001;-67
2024/04/11 02:04:21;;;;;;;4.85;2.75;;;;;;;;;;5345010;26;20001;-67
2024/04/11 02:06:46;;;;;;;7.40;2.50;;;;;;;;;;5344172;26;19996;-67
2024/04/11 02:09:15;;;;;;;10.43;2.70;;;;;;;;;;5344324;26;20001;-67
2024/04/11 02:11:43;;;;;;;3.60;2.05;;;;;;;;;;5361326;26;20013;-64
2024/04/11 02:14:08;;;;;;;6.32;2.00;;;;;;;;;;5342715;26;20005;-64
2024/04/11 02:16:36;;;;;;;2.30;1.88;;;;;;;;;;5345076;26;20453;-64
2024/04/11 02:19:06;;;;;;;4.03;1.83;;;;;;;;;;5343938;26;20083;-64
2024/04/11 02:21:36;;;;;;;6.20;2.47;;;;;;;;;;5344102;26;20020;-63
2024/04/11 02:24:02;;;;;;;9.15;2.88;;;;;;;;;;5343899;26;20009;-63
2024/04/11 02:26:28;;;;;;;2.75;1.95;;;;;;;;;;5344406;26;20345;-64
2024/04/11 02:28:55;;;;;;;4.68;2.13;;;;;;;;;;5343932;26;20027;-64
2024/04/11 02:31:20;;;;;;;5.95;2.03;;;;;;;;;;5344340;26;20323;-64
2024/04/11 02:33:46;;;;;;;4.88;2.10;;;;;;;;;;5334316;26;20013;-64
2024/04/11 02:36:11;;;;;;;5.65;2.15;;;;;;;;;;5371568;26;20000;-64
2024/04/11 02:38:36;;;;;;;6.68;2.33;;;;;;;;;;5344009;26;20460;-64
2024/04/11 02:41:02;;;;;;;4.82;2.03;;;;;;;;;;5344771;26;20078;-64
2024/04/11 02:43:28;;;;;;;9.77;2.03;;;;;;;;;;5344130;26;20009;-64
2024/04/11 02:45:57;;;;;;;7.05;2.47;;;;;;;;;;5344197;26;20016;-64
2024/04/11 02:48:25;;;;;;;3.85;2.15;;;;;;;;;;5341878;26;20082;-63
2024/04/11 02:50:50;;;;;;;6.93;2.55;;;;;;;;;;5343903;26;20009;-64
2024/04/11 02:53:17;;;;;;;6.97;2.25;;;;;;;;;;5343329;26;20008;-64
2024/04/11 02:55:44;;;;;;;11.13;2.83;;;;;;;;;;5344326;26;20001;-64
2024/04/11 02:58:09;;;;;;;4.60;2.53;;;;;;;;;;5343685;26;20012;-63
2024/04/11 03:00:34;;;;;;;13.55;1.92;;;;;;;;;;5343984;26;20041;-63
2024/04/11 03:03:00;;;;;;;5.13;2.00;;;;;;;;;;5343545;26;20013;-64
2024/04/11 03:05:26;;;;;;;8.85;1.90;;;;;;;;;;5344171;26;20078;-64
2024/04/11 03:07:51;;;;;;;8.05;1.92;;;;;;;;;;5343303;26;20019;-64
2024/04/11 03:10:16;;;;;;;6.20;1.90;;;;;;;;;;5341580;26;20350;-64
2024/04/11 03:12:41;;;;;;;7.07;2.15;;;;;;;;;;5363930;26;20086;-63
2024/04/11 03:15:09;;;;;;;4.38;2.10;;;;;;;;;;5361754;26;20033;-63
2024/04/11 03:17:35;;;;;;;2.13;1.67;;;;;;;;;;5343170;26;20052;-64
2024/04/11 03:20:00;;;;;;;3.85;2.15;;;;;;;;;;5345134;26;20024;-64
2024/04/11 03:22:26;;;;;;;6.38;2.10;;;;;;;;;;5346304;26;20008;-66
2024/04/11 03:24:51;;;;;;;5.75;2.00;;;;;;;;;;5346739;26;20008;-66
2024/04/11 03:27:16;;;;;;;4.30;1.77;;;;;;;;;;5344235;26;20024;-66
2024/04/11 03:29:43;;;;;;;6.40;2.60;;;;;;;;;;5345263;26;20519;-66
2024/04/11 03:32:11;;;;;;;4.32;2.53;;;;;;;;;;5346601;26;20021;-66
2024/04/11 03:34:37;;;;;;;2.63;1.63;;;;;;;;;;5346912;26;20519;-66
2024/04/11 03:37:04;;;;;;;6.05;1.95;;;;;;;;;;5346261;26;20849;-66
2024/04/11 03:39:30;;;;;;;2.63;1.90;;;;;;;;;;5346716;26;20001;-66
2024/04/11 03:41:56;;;;;;;5.05;1.73;;;;;;;;;;5346386;26;20000;-66
2024/04/11 03:44:22;;;;;;;3.72;1.83;;;;;;;;;;5346405;26;20033;-66
2024/04/11 03:46:47;;;;;;;4.05;2.25;;;;;;;;;;5346166;26;20013;-66
2024/04/11 03:49:13;;;;;;;4.28;1.73;;;;;;;;;;5345194;26;19997;-67
2024/04/11 03:51:41;;;;;;;2.45;1.73;;;;;;;;;;5346351;26;20043;-66
2024/04/11 03:54:07;;;;;;;3.72;1.92;;;;;;;;;;5346258;26;20060;-66
2024/04/11 03:56:33;;;;;;;3.42;1.80;;;;;;;;;;5346650;26;19997;-66
2024/04/11 03:58:59;;;;;;;4.38;2.13;;;;;;;;;;5343807;26;20008;-66
2024/04/11 04:01:27;;;;;;;4.30;1.65;;;;;;;;;;5346767;26;20008;-67
2024/04/11 04:04:02;;;;;;;3.70;2.17;;;;;;;;;;5345903;26;20082;-66
2024/04/11 04:06:28;;;;;;;;;;;;;;;;;;5347079;26;20004;-66
2024/04/11 04:08:54;;;;;;;7.53;1.92;;;;;;;;;;5345737;26;19926;-66
2024/04/11 04:11:20;;;;;;;7.18;2.53;;;;;;;;;;5344391;26;20333;-66
2024/04/11 04:13:47;;;;;;;8.85;2.25;;;;;;;;;;5346088;26;20004;-66
2024/04/11 04:16:16;;;;;;;2.30;1.52;;;;;;;;;;5346919;26;20012;-66
2024/04/11 04:18:46;;;;;;;6.28;2.00;;;;;;;;;;5345340;26;20005;-66
2024/04/11 04:21:13;;;;;;;5.38;1.58;;;;;;;;;;5335956;26;20449;-63
2024/04/11 04:23:40;;;;;;;4.60;1.75;;;;;;;;;;5345600;26;20444;-67
2024/04/11 04:26:07;;;;;;;4.00;1.50;;;;;;;;;;5345884;26;20019;-67
2024/04/11 04:28:35;;;;;;;5.93;1.88;;;;;;;;;;5345759;26;20019;-67
2024/04/11 04:31:16;;;;;;;5.85;2.67;;;;;;;;;;5345204;26;20082;-68
2024/04/11 04:33:49;;;;;;;10.63;2.00;;;;;;;;;;5345688;26;20024;-64
2024/04/11 04:36:19;;;;;;;5.97;1.85;;;;;;;;;;5335172;26;20498;-64
2024/04/11 04:38:49;;;;;;;6.38;2.72;;;;;;;;;;5345409;26;20031;-64
2024/04/11 04:41:19;;;;;;;6.50;1.38;;;;;;;;;;5346199;26;20010;-64
2024/04/11 04:43:53;;;;;;;2.55;1.75;;;;;;;;;;5345114;26;20017;-65
2024/04/11 04:46:29;;;;;;;5.05;1.55;;;;;;;;;;5346455;26;20013;-64
2024/04/11 04:48:55;;;;;;;4.90;1.30;;;;;;;;;;5343371;26;20082;-64
2024/04/11 04:51:22;;;;;;;3.33;1.42;;;;;;;;;;5346008;26;20004;-61
2024/04/11 04:53:52;;;;;;;2.50;1.15;;;;;;;;;;5343098;26;20471;-61
2024/04/11 04:56:18;;;;;;;2.10;1.35;;;;;;;;;;5345628;26;20456;-62
2024/04/11 04:58:44;;;;;;;5.47;1.23;;;;;;;;;;5345576;26;20024;-61
2024/04/11 05:01:10;;;;;;;2.67;1.10;;;;;;;;;;5345928;26;20001;-62
2024/04/11 05:03:38;;;;;;;5.53;1.30;;;;;;;;;;5344903;26;20009;-61
2024/04/11 05:06:04;;;;;;;8.82;1.67;;;;;;;;;;5345905;26;20005;-61
2024/04/11 05:08:32;;;;;;;4.07;1.25;;;;;;;;;;5345396;26;20456;-61
2024/04/11 05:10:58;;;;;;;3.55;1.10;;;;;;;;;;5345536;26;20429;-62
2024/04/11 05:13:29;;;;;;;3.67;1.40;;;;;;;;;;5345215;26;20008;-62
2024/04/11 05:16:06;;;;;;;5.82;1.33;;;;;;;;;;5345419;26;20001;-62
2024/04/11 05:18:39;;;;;;;1.95;1.30;;;;;;;;;;5344717;26;20080;-61
2024/04/11 05:21:24;;;;;;;1.83;1.10;;;;;;;;;;5345208;26;20475;-61
2024/04/11 05:23:50;;;;;;;5.30;1.55;;;;;;;;;;5344455;26;20024;-62
2024/04/11 05:26:15;;;;;;;6.90;1.75;;;;;;;;;;5345532;26;20009;-61
2024/04/11 05:28:45;;;;;;;6.13;1.63;;;;;;;;;;5343006;26;20095;-62
2024/04/11 05:31:16;;;;;;;3.38;1.08;;;;;;;;;;5343356;26;20005;-61
2024/04/11 05:33:43;;;;;;;5.05;1.33;;;;;;;;;;5344738;26;20005;-65
2024/04/11 05:36:12;;;;;;;6.72;1.65;;;;;;;;;;5344846;26;20005;-66
2024/04/11 05:38:41;;;;;;;4.38;1.25;;;;;;;;;;5344587;26;20473;-65
2024/04/11 05:41:09;;;;;;;2.60;1.20;;;;;;;;;;5345035;26;20164;-66
2024/04/11 05:43:43;;;;;;;3.58;1.00;;;;;;;;;;5343293;26;20464;-66
2024/04/11 05:46:19;;;;;;;3.88;1.15;;;;;;;;;;5344958;26;20510;-66
2024/04/11 05:48:49;;;;;;;2.65;1.20;;;;;;;;;;5343897;26;20348;-64
2024/04/11 05:51:14;;;;;;;1.85;0.85;;;;;;;;;;5345757;26;20028;-66
2024/04/11 05:53:41;;;;;;;2.22;1.20;;;;;;;;;;5344503;26;20017;-65
2024/04/11 05:56:08;;;;;;;2.90;1.10;;;;;;;;;;5343358;26;20001;-65
2024/04/11 05:58:35;;;;;;;7.32;1.30;;;;;;;;;;5344189;26;20017;-66
2024/04/11 06:01:05;;;;;;;7.75;1.52;;;;;;;;;;5342693;26;20005;-66
2024/04/11 06:03:31;;;;;;;1.20;1.00;;;;;;;;;;5342480;26;20013;-65
2024/04/11 06:05:57;;;;;;;1.98;1.00;;;;;;;;;;5344951;26;20017;-66
2024/04/11 06:08:23;;;;;;;3.58;1.45;;;;;;;;;;5344151;26;20012;-66
2024/04/11 06:10:48;;;;;;;3.50;1.15;;;;;;;;;;5344565;26;20004;-66
2024/04/11 06:13:14;;;;;;;4.22;1.45;;;;;;;;;;5344350;26;20020;-66
2024/04/11 06:15:42;;;;;;;2.33;0.88;;;;;;;;;;5344955;26;20005;-66
2024/04/11 06:18:09;;;;;;;3.47;1.30;;;;;;;;;;5339272;26;20005;-65
2024/04/11 06:20:38;;;;;;;2.72;1.05;;;;;;;;;;5366444;26;20020;-66
2024/04/11 06:23:08;;;;;;;2.28;0.90;;;;;;;;;;5343773;26;20013;-66
2024/04/11 06:25:36;;;;;;;4.97;1.48;;;;;;;;;;5344823;26;20008;-66
2024/04/11 06:28:01;;;;;;;3.63;0.90;;;;;;;;;;5344040;26;20017;-66
2024/04/11 06:30:26;;;;;;;2.10;1.20;;;;;;;;;;5342693;26;20449;-66
2024/04/11 06:32:54;;;;;;;0.95;0.82;;;;;;;;;;5343575;26;20005;-66
2024/04/11 06:35:19;;;;;;;3.20;1.00;;;;;;;;;;5344315;26;20088;-65
2024/04/11 06:37:45;;;;;;;5.82;1.38;;;;;;;;;;5343944;26;20763;-65
2024/04/11 06:40:13;;;;;;;3.85;2.47;;;;;;;;;;5344905;26;19997;-66
2024/04/11 06:42:46;;;;;;;5.28;1.33;;;;;;;;;;5344041;26;20032;-66
2024/04/11 06:45:14;;;;;;;7.65;1.20;;;;;;;;;;5344257;26;20509;-66
2024/04/11 06:47:41;;;;;;;2.65;0.90;;;;;;;;;;5343899;26;20009;-66
2024/04/11 06:50:06;;;;;;;2.35;1.35;;;;;;;;;;5344238;26;20005;-66
2024/04/11 06:52:32;;;;;;;3.45;1.40;;;;;;;;;;5343755;26;20041;-62
2024/04/11 06:54:58;;;;;;;7.25;1.38;;;;;;;;;;5343361;26;20001;-62
2024/04/11 06:57:26;;;;;;;5.10;0.88;;;;;;;;;;5343542;26;20467;-62
2024/04/11 06:59:52;;;;;;;4.13;1.23;;;;;;;;;;5343390;26;20445;-62
2024/04/11 07:02:17;;;;;;;3.00;1.27;;;;;;;;;;5343411;26;20012;-62
2024/04/11 07:04:43;;;;;;;2.97;1.38;;;;;;;;;;5344238;26;20407;-64
2024/04/11 07:07:09;;;;;;;4.88;1.33;;;;;;;;;;5343654;26;20049;-64
2024/04/11 07:09:37;;;;;;;5.93;1.27;;;;;;;;;;5343830;26;20090;-64
2024/04/11 07:12:04;;;;;;;6.53;1.20;;;;;;;;;;5343557;26;20060;-64
2024/04/11 07:14:31;;;;;;;6.35;2.20;;;;;;;;;;5341768;26;20001;-64
2024/04/11 07:16:56;;;;;;;3.83;1.38;;;;;;;;;;5342913;26;20002;-64
2024/04/11 07:19:22;;;;;;;6.20;0.93;;;;;;;;;;5343610;26;20015;-64
2024/04/11 07:21:48;;;;;;;2.63;1.05;;;;;;;;;;5340925;26;20079;-64
2024/04/11 07:24:13;;;;;;;6.20;1.42;;;;;;;;;;5344191;26;20395;-64
2024/04/11 07:26:40;;;;;;;4.93;0.90;;;;;;;;;;5343796;26;20001;-65
2024/04/11 07:29:07;;;;;;;3.53;1.40;;;;;;;;;;5343307;26;20017;-64
2024/04/11 07:31:36;;;;;;;6.10;1.48;;;;;;;;;;5343701;26;20379;-64
2024/04/11 07:34:04;;;;;;;3.33;1.23;;;;;;;;;;5343346;26;20078;-64
2024/04/11 07:36:32;;;;;;;6.88;1.63;;;;;;;;;;5340775;26;20024;-64
2024/04/11 07:38:58;;;;;;;4.75;1.17;;;;;;;;;;5340331;26;20023;-65
2024/04/11 07:41:27;;;;;;;6.00;1.80;;;;;;;;;;5343437;26;20001;-64
2024/04/11 07:43:59;;;;;;;3.22;1.10;;;;;;;;;;5342638;26;20037;-64
2024/04/11 07:46:29;;;;;;;2.20;0.80;;;;;;;;;;5343325;26;20000;-64
2024/04/11 07:48:56;;;;;;;3.45;1.08;;;;;;;;;;5342622;26;20468;-64
2024/04/11 07:51:22;;;;;;;3.53;1.23;;;;;;;;;;5343147;26;20000;-64
2024/04/11 07:53:48;;;;;;;3.60;1.10;;;;;;;;;;5331060;26;20010;-68
2024/04/11 07:56:19;;;;;;;4.35;2.25;;;;;;;;;;5322832;26;20009;-68
2024/04/11 07:58:49;;;;;;;7.10;1.35;;;;;;;;;;5342234;26;20412;-68
2024/04/11 08:01:15;;;;;;;3.33;1.13;;;;;;;;;;5342706;26;20099;-67
2024/04/11 08:03:41;;;;;;;6.38;1.60;;;;;;;;;;5341750;26;20005;-68
2024/04/11 08:06:10;;;;;;;4.07;1.48;;;;;;;;;;5342832;26;20313;-68
2024/04/11 08:08:38;;;;;;;4.50;1.25;;;;;;;;;;5343417;26;20009;-68
2024/04/11 08:11:06;;;;;;;5.45;1.02;;;;;;;;;;5344546;26;20005;-68
2024/04/11 08:13:35;;;;;;;6.32;1.20;;;;;;;;;;5345803;26;20009;-68
2024/04/11 08:16:00;;;;;;;6.85;1.48;;;;;;;;;;5346371;26;20013;-68
2024/04/11 08:18:28;;;;;;;4.03;1.45;;;;;;;;;;5345642;26;20012;-68
2024/04/11 08:20:56;;;;;;;3.33;1.00;;;;;;;;;;5346266;26;20005;-67
2024/04/11 08:23:24;;;;;;;9.98;1.77;;;;;;;;;;5345636;26;20441;-68
2024/04/11 08:25:51;;;;;;;4.20;1.98;;;;;;;;;;5344357;26;20005;-68
2024/04/11 08:28:16;;;;;;;7.00;0.95;;;;;;;;;;5346302;26;20009;-68
2024/04/11 08:30:45;;;;;;;4.72;1.42;;;;;;;;;;5345695;26;20349;-68
2024/04/11 08:33:10;;;;;;;4.43;1.25;;;;;;;;;;5346129;26;20005;-68
2024/04/11 08:35:36;;;;;;;2.85;0.93;;;;;;;;;;5346260;26;20332;-68
2024/04/11 08:38:05;;;;;;;4.32;0.95;;;;;;;;;;5345427;26;20335;-68
2024/04/11 08:40:33;;;;;;;3.67;1.00;;;;;;;;;;5346240;26;20005;-68
2024/04/11 08:42:58;;;;;;;2.40;0.95;;;;;;;;;;5345581;26;20009;-67
2024/04/11 08:45:26;;;;;;;3.22;1.15;;;;;;;;;;5346517;26;20487;-68
2024/04/11 08:47:52;;;;;;;1.20;1.08;;;;;;;;;;5345415;26;20008;-68
2024/04/11 08:50:17;;;;;;;6.72;1.55;;;;;;;;;;5345344;26;20081;-68
2024/04/11 08:52:45;;;;;;;8.63;0.95;;;;;;;;;;5344997;26;20027;-68
2024/04/11 08:55:13;;;;;;;2.45;1.02;;;;;;;;;;5345762;26;20001;-68
2024/04/11 08:57:38;;;;;;;9.60;1.20;;;;;;;;;;5344163;26;20165;-68
2024/04/11 09:00:12;;;;;;;5.88;1.33;;;;;;;;;;5345154;26;20005;-68
2024/04/11 09:02:41;;;;;;;4.32;1.30;;;;;;;;;;5345014;26;20070;-69
2024/04/11 09:05:10;;;;;;;10.85;1.25;;;;;;;;;;5345981;26;19997;-68
2024/04/11 09:07:36;;;;;;;10.85;1.42;;;;;;;;;;5345148;26;20100;-68
2024/04/11 09:10:05;;;;;;;4.18;1.23;;;;;;;;;;5345498;26;20441;-68
2024/04/11 09:12:31;;;;;;;2.95;1.23;;;;;;;;;;5345204;26;20024;-68
2024/04/11 09:14:56;;;;;;;3.60;1.08;;;;;;;;;;5345709;26;20047;-65
2024/04/11 09:17:21;;;;;;;5.45;1.02;;;;;;;;;;5344852;26;20023;-64
2024/04/11 09:19:49;;;;;;;3.75;0.93;;;;;;;;;;5344938;26;20541;-65
2024/04/11 09:22:16;;;;;;;3.33;1.17;;;;;;;;;;5344704;26;20155;-64
2024/04/11 09:24:45;;;;;;;4.53;1.27;;;;;;;;;;5344910;26;20019;-65
2024/04/11 09:27:17;;;;;;;2.65;1.25;;;;;;;;;;5344968;26;20020;-65
2024/04/11 09:29:43;;;;;;;3.17;1.05;;;;;;;;;;5344833;26;20433;-62
2024/04/11 09:32:11;;;;;;;4.93;1.17;;;;;;;;;;5342501;26;20016;-63
2024/04/11 09:34:39;;;;;;;4.05;1.25;;;;;;;;;;5344677;26;19997;-63
2024/04/11 09:37:15;;;;;;;6.13;1.50;;;;;;;;;;5344335;26;20007;-62
2024/04/11 09:39:49;;;;;;;5.43;1.23;;;;;;;;;;5344354;26;20445;-63
2024/04/11 09:42:19;;;;;;;3.58;1.25;;;;;;;;;;5344404;26;20025;-63
2024/04/11 09:44:52;;;;;;;4.30;1.23;;;;;;;;;;5345579;26;20013;-62
2024/04/11 09:47:19;;;;;;;5.95;1.15;;;;;;;;;;5337517;26;20523;-63
2024/04/11 09:49:59;;;;;;;10.07;1.30;;;;;;;;;;5343062;26;20453;-62
2024/04/11 09:52:30;;;;;;;3.17;0.98;;;;;;;;;;5344439;26;20468;-64
2024/04/11 09:54:56;;;;;;;1.77;0.90;;;;;;;;;;5345471;26;20013;-62
2024/04/11 09:57:24;;;;;;;3.33;0.98;;;;;;;;;;5345420;26;20086;-62
2024/04/11 09:59:50;;;;;;;4.63;0.95;;;;;;;;;;5345243;26;20005;-63
2024/04/11 10:02:20;;;;;;;3.72;1.33;;;;;;;;;;5345075;26;20009;-63
2024/04/11 10:04:45;;;;;;;4.53;0.80;;;;;;;;;;5345640;26;20007;-63
2024/04/11 10:07:12;;;;;;;6.03;1.25;;;;;;;;;;5345068;26;20012;-62
2024/04/11 10:09:47;;;;;;;6.28;1.02;;;;;;;;;;5345622;26;20004;-63
2024/04/11 10:12:19;;;;;;;4.47;1.10;;;;;;;;;;5342598;26;20020;-62
2024/04/11 10:15:18;;;;;;;5.07;2.03;;;;;;;;;;5345194;26;20091;-62
2024/04/11 10:18:02;;;;;;;3.97;1.00;;;;;;;;;;5343783;26;20064;-63
2024/04/11 10:20:38;;;;;;;2.72;0.88;;;;;;;;;;5344956;26;20024;-63
2024/04/11 10:23:03;;;;;;;3.67;1.60;;;;;;;;;;5344341;26;20013;-62
2024/04/11 10:25:32;;;;;;;2.50;1.00;;;;;;;;;;5343133;26;20001;-63
2024/04/11 10:27:59;;;;;;;5.43;1.15;;;;;;;;;;5342167;26;20025;-62
2024/04/11 10:30:27;;;;;;;4.30;1.20;;;;;;;;;;5344168;26;20016;-63
2024/04/11 10:32:53;;;;;;;4.70;0.93;;;;;;;;;;5342395;26;20082;-64
2024/04/11 10:35:24;;;;;;;4.68;1.65;;;;;;;;;;5344759;26;20029;-64
2024/04/11 10:37:50;;;;;;;6.85;1.40;;;;;;;;;;5344132;26;20464;-64
2024/04/11 10:40:17;;;;;;;2.03;1.30;;;;;;;;;;5344550;26;20013;-64
2024/04/11 10:45:30;;;;;;;3.45;1.13;;;;;;;;;;5344468;26;20447;-64
2024/04/11 10:47:59;;;;;;;6.82;1.20;;;;;;;;;;5343842;26;20020;-65
2024/04/11 10:50:27;;;;;;;5.75;1.05;;;;;;;;;;5344885;26;20029;-64
2024/04/11 10:52:52;;;;;;;3.70;1.13;;;;;;;;;;5344008;26;20017;-64
2024/04/11 10:55:35;;;;;;;7.07;1.33;;;;;;;;;;5344478;26;20718;-64
2024/04/11 10:58:21;;;;;;;1.77;1.10;;;;;;;;;;5341782;26;20020;-64
2024/04/11 11:03:46;;;;;;;1.08;0.60;;;;;;;;;;5343700;26;20009;-62
2024/04/11 11:06:40;;;;;;;7.90;1.15;;;;;;;;;;5344085;26;19997;-62
2024/04/11 11:09:12;;;;;;;4.20;0.88;;;;;;;;;;5343273;26;20452;-62
2024/04/11 11:11:40;;;;;;;4.28;1.08;;;;;;;;;;5343739;26;19997;-63
2024/04/11 11:14:08;;;;;;;4.28;0.80;;;;;;;;;;5341559;26;20024;-62
2024/04/11 11:16:33;;;;;;;3.47;1.10;;;;;;;;;;5344050;26;20016;-62
2024/04/11 11:18:59;;;;;;;3.08;1.40;;;;;;;;;;5343037;26;20013;-62
2024/04/11 11:21:25;;;;;;;2.85;0.95;;;;;;;;;;5344176;26;20344;-63
2024/04/11 11:24:00;;;;;;;2.55;1.17;;;;;;;;;;5342837;26;20028;-62
2024/04/11 11:26:43;;;;;;;3.85;1.38;;;;;;;;;;5341419;26;20001;-67
2024/04/11 11:29:10;;;;;;;4.45;1.17;;;;;;;;;;5343413;26;20024;-67
2024/04/11 11:31:40;;;;;;;2.60;1.02;;;;;;;;;;5343910;26;19997;-67
2024/04/11 11:34:10;;;;;;;4.10;1.00;;;;;;;;;;5341232;26;20017;-67
2024/04/11 11:36:40;;;;;;;3.25;1.17;;;;;;;;;;5343481;26;20012;-66
2024/04/11 11:39:09;;;;;;;3.83;1.05;;;;;;;;;;5340766;26;20032;-66
2024/04/11 11:41:37;;;;;;;3.22;1.08;;;;;;;;;;5345967;26;20400;-67
2024/04/11 11:44:17;;;;;;;4.07;1.13;;;;;;;;;;5346376;26;20017;-66
2024/04/11 11:46:44;;;;;;;5.03;1.63;;;;;;;;;;5346786;26;20483;-65
2024/04/11 11:49:12;;;;;;;3.30;1.23;;;;;;;;;;5346622;26;20005;-66
2024/04/11 11:51:39;;;;;;;5.53;1.48;;;;;;;;;;5346275;26;20463;-66
2024/04/11 11:54:12;;;;;;;3.40;1.17;;;;;;;;;;5345850;26;20535;-66
2024/04/11 11:56:42;;;;;;;4.63;1.35;;;;;;;;;;5346355;26;20005;-66
2024/04/11 11:59:08;;;;;;;3.17;1.13;;;;;;;;;;5345902;26;20063;-66
2024/04/11 12:01:41;;;;;;;6.95;1.48;;;;;;;;;;5344514;26;20016;-66
2024/04/11 12:04:08;;;;;;;2.88;1.00;;;;;;;;;;5346067;26;20350;-67
2024/04/11 12:06:34;;;;;;;8.20;1.77;;;;;;;;;;5344820;26;19997;-66
2024/04/11 12:09:10;;;;;;;6.70;1.65;;;;;;;;;;5344139;26;20105;-66
2024/04/11 12:14:28;;;;;;;1.90;1.10;;;;;;;;;;5346390;26;20013;-66
2024/04/11 12:16:57;;;;;;;7.50;1.40;;;;;;;;;;5345939;26;20005;-67
2024/04/11 12:19:28;;;;;;;1.77;0.80;;;;;;;;;;5346473;26;20071;-67
2024/04/11 12:22:04;;;;;;;3.33;1.40;;;;;;;;;;5346104;26;20001;-67
2024/04/11 12:24:31;;;;;;;2.17;0.90;;;;;;;;;;5346324;26;20005;-66
2024/04/11 12:26:59;;;;;;;2.75;1.20;;;;;;;;;;5345741;26;20433;-69
2024/04/11 12:29:25;;;;;;;2.13;1.13;;;;;;;;;;5346938;26;20001;-69
2024/04/11 12:31:51;;;;;;;5.15;0.90;;;;;;;;;;5345712;26;20041;-68
2024/04/11 12:34:16;;;;;;;3.78;1.30;;;;;;;;;;5346265;26;19997;-69
2024/04/11 12:36:56;;;;;;;4.63;1.23;;;;;;;;;;5345998;26;20008;-66
2024/04/11 12:39:23;;;;;;;3.55;1.10;;;;;;;;;;5345980;26;20016;-66
2024/04/11 12:41:51;;;;;;;3.42;1.52;;;;;;;;;;5345478;26;20441;-67
2024/04/11 12:44:24;;;;;;;79.05;21.05;;;;;;;;;;5346272;26;20004;-66
2024/04/11 12:46:52;;;;;;;6.63;1.75;;;;;;;;;;5343722;26;20000;-63
2024/04/11 12:49:20;;;;;;;45.83;12.60;;;;;;;;;;5345532;26;20013;-63
2024/04/11 12:51:46;;;;;;;3.60;1.45;;;;;;;;;;5344350;26;20052;-65
2024/04/11 12:54:15;;;;;;;6.25;1.63;;;;;;;;;;5345653;26;20461;-66
2024/04/11 12:56:49;;;;;;;3.78;1.20;;;;;;;;;;5345770;26;20004;-64
2024/04/11 12:59:28;;;;;;;83.70;20.83;;;;;;;;;;5345010;26;20017;-64
2024/04/11 13:01:55;;;;;;;14.50;1.90;;;;;;;;;;5344896;26;20005;-63
2024/04/11 13:04:28;;;;;;;8.25;1.80;;;;;;;;;;5345744;26;19996;-64
2024/04/11 13:06:58;;;;;;;5.95;1.63;;;;;;;;;;5344969;26;20029;-64
2024/04/11 13:09:33;;;;;;;3.05;1.60;;;;;;;;;;5345513;26;20011;-63
2024/04/11 13:12:04;;;;;;;4.25;1.33;;;;;;;;;;5344290;26;20009;-64
2024/04/11 13:14:43;;;;;;;3.10;1.83;;;;;;;;;;5345389;26;20008;-64
2024/04/11 13:17:12;;;;;;;7.75;2.05;;;;;;;;;;5344773;26;20036;-64
2024/04/11 13:19:39;;;;;;;5.10;1.67;;;;;;;;;;5345240;26;20102;-64
2024/04/11 13:22:07;;;;;;;2.15;1.02;;;;;;;;;;5344376;26;20004;-64
2024/04/11 13:24:45;;;;;;;9.32;1.70;;;;;;;;;;5345291;26;20001;-64
2024/04/11 13:27:14;;;;;;;4.22;1.70;;;;;;;;;;5344555;26;20004;-64
2024/04/11 13:29:40;;;;;;;6.80;2.00;;;;;;;;;;5345239;26;20004;-64
2024/04/11 13:32:11;;;;;;;6.03;2.08;;;;;;;;;;5344620;26;20037;-64
2024/04/11 13:34:39;;;;;;;5.25;1.35;;;;;;;;;;5345358;26;19997;-64
2024/04/11 13:37:13;;;;;;;8.73;1.63;;;;;;;;;;5344957;26;20082;-63
2024/04/11 13:42:27;;;;;;;;;;;;;;;;;;5345378;26;20013;-64
2024/04/11 13:44:53;;;;;;;6.57;1.73;;;;;;;;;;5345201;26;19996;-64
2024/04/11 13:47:25;;;;;;;2.65;1.50;;;;;;;;;;5344742;26;20001;-64
2024/04/11 13:49:57;;;;;;;10.48;2.78;;;;;;;;;;5344613;26;20013;-66
2024/04/11 13:52:31;;;;;;;7.40;2.75;;;;;;;;;;5342488;26;20012;-64
2024/04/11 13:54:59;;;;;;;3.88;1.77;;;;;;;;;;5344718;26;20005;-64
2024/04/11 13:57:32;;;;;;;4.90;1.98;;;;;;;;;;5345553;26;20020;-64
2024/04/11 13:59:58;;;;;;;3.15;1.73;;;;;;;;;;5344233;26;20441;-65
2024/04/11 14:02:38;;;;;;;4.18;1.75;;;;;;;;;;5344666;26;20009;-64
2024/04/11 14:05:10;;;;;;;7.55;1.92;;;;;;;;;;5341685;26;20028;-64
2024/04/11 14:07:39;;;;;;;5.30;1.67;;;;;;;;;;5344355;26;20071;-65
2024/04/11 14:10:06;;;;;;;3.22;1.65;;;;;;;;;;5344702;26;20012;-65
2024/04/11 14:12:31;;;;;;;7.03;1.88;;;;;;;;;;5344355;26;20024;-65
2024/04/11 14:14:57;;;;;;;3.30;1.50;;;;;;;;;;5343243;26;20096;-65
2024/04/11 14:17:22;;;;;;;6.07;1.40;;;;;;;;;;5344773;26;20412;-65
2024/04/11 14:19:52;;;;;;;4.53;1.60;;;;;;;;;;5344526;26;20092;-64
2024/04/11 14:27:38;;;;;;;4.30;1.48;;;;;;;;;;5342112;26;20090;-65
2024/04/11 14:30:04;;;;;;;5.95;1.65;;;;;;;;;;5344619;26;20004;-65
2024/04/11 14:38:07;;;;;;;3.33;1.48;;;;;;;;;;5324249;26;20041;-65
2024/04/11 14:40:37;;;;;;;6.25;1.88;;;;;;;;;;5344433;26;20074;-64
2024/04/11 14:43:09;;;;;;;5.20;2.75;;;;;;;;;;5341929;26;20037;-65
2024/04/11 14:45:41;;;;;;;5.18;1.80;;;;;;;;;;5344428;26;20001;-64
2024/04/11 14:48:18;;;;;;;4.65;1.88;;;;;;;;;;5343739;26;20013;-65
2024/04/11 14:50:48;;;;;;;3.08;1.90;;;;;;;;;;5342276;26;20329;-64
2024/04/11 14:53:16;;;;;;;5.03;1.90;;;;;;;;;;5343713;26;20045;-64
2024/04/11 14:55:45;;;;;;;6.47;2.33;;;;;;;;;;5344044;26;20008;-64
2024/04/11 14:58:11;;;;;;;5.00;2.25;;;;;;;;;;5343487;26;20027;-63
2024/04/11 15:00:48;;;;;;;4.32;2.03;;;;;;;;;;5313435;26;20005;-63
2024/04/11 15:03:19;;;;;;;7.57;2.28;;;;;;;;;;5343718;26;20020;-63
2024/04/11 15:05:50;;;;;;;10.10;2.70;;;;;;;;;;5343967;26;20016;-67
2024/04/11 15:08:22;;;;;;;4.95;1.88;;;;;;;;;;5343837;26;20023;-65
2024/04/11 15:10:50;;;;;;;5.60;2.55;;;;;;;;;;5343983;26;20473;-64
2024/04/11 15:13:16;;;;;;;4.00;2.28;;;;;;;;;;5338919;26;22409;-65